Decoded Metar for KFKL (FRANKLIN in PA, USA) (IATA:FKL) | Meteo·Mobile Aviation Weather
aviador You're here:

KFKL Decoded Metar

FRANKLIN in PA, USA
Report Time2018-11-17 20:56:00
UTC Time2018-11-17 21:23:34
Flight Rules mvfr MVFR
Wind270° at 04 kt
W.Decomp.*RWY 30: 3.8 kt HW 1.4 kt LCW
RWY 21: 1.4 kt HW 3.8 kt RCW
W.Rank270° ranks 10
Current wind is below 270° avg. (8.0)
Visibility8047 m
Phenomena:Mist
Clouds:Overcast 016 Hf
Expected CloudBase > 800 ft AGL from Temp-Dew spread
Ceiling1,600 ft
Temp01°C (ISA -11)
Dew Point-1°C (87% RH)
AAT-2.6°C
QNH1024 hPa
Density Alt-79 ft
Elevation1,539 ft
Report Wrong Elevation
Raw Report
KFKL 172056Z AUTO 27004KT 5SM BR OVC016 01/M01 A3024 RMK AO2 SLPNO
6//// T00061006 FZRANO=

Extra information for KFKL:More info

Metar Taf Metar & Taf Last 4 Metars F.Rules Stats Wind Profile Meteogram Temp Stats Airport Information Weather charts Add Link Nearby VenuesMetar ALERT Operation Metar Decoded Social comments

AIRNAV info for KFKL